Time;durP1;ratioP1;P1;durP2;ratioP2;P2;SDS_P1;SDS_P2;PMS_P1;PMS_P2;Temp;Humidity;BMP_temperature;BMP_pressure;BME280_temperature;BME280_humidity;BME280_pressure;Samples;Min_cycle;Max_cycle;Signal;HPM_P1;HPM_P2
2022/09/26 00:01:38;;;;;;;;;;;10.50;99.90;;;;;;5006622;28;19926;-88
2022/09/26 00:04:24;;;;;;;;;;;10.20;99.90;;;;;;5022319;28;20000;-89
2022/09/26 00:06:53;;;;;;;;;;;10.20;99.90;;;;;;5032289;28;19940;-88
2022/09/26 00:09:19;;;;;;;;;;;10.20;99.90;;;;;;5018688;28;19929;-88
2022/09/26 00:11:45;;;;;;;;;;;10.20;99.90;;;;;;5024340;28;19924;-88
2022/09/26 00:14:13;;;;;;;;;;;10.20;99.90;;;;;;5023040;28;19931;-88
2022/09/26 00:16:38;;;;;;;;;;;10.20;99.90;;;;;;5034150;28;19935;-88
2022/09/26 00:19:04;;;;;;;;;;;10.20;99.90;;;;;;5018057;28;19925;-88
2022/09/26 00:21:30;;;;;;;;;;;10.20;99.90;;;;;;5014279;28;19965;-89
2022/09/26 00:23:57;;;;;;;;;;;10.20;99.90;;;;;;4998814;28;19926;-89
2022/09/26 00:26:23;;;;;;;;;;;10.20;99.90;;;;;;5003605;28;19976;-89
2022/09/26 00:28:48;;;;;;;;;;;10.20;99.90;;;;;;5001322;28;19925;-88
2022/09/26 00:31:37;;;;;;;;;;;10.20;99.90;;;;;;5000292;28;20024;-88
2022/09/26 00:34:02;;;;;;;;;;;10.20;99.90;;;;;;5014828;28;20312;-88
2022/09/26 00:36:28;;;;;;;;;;;10.40;99.90;;;;;;4986947;28;19989;-88
2022/09/26 00:38:57;;;;;;;;;;;10.20;99.90;;;;;;4995180;28;19926;-87
2022/09/26 00:41:23;;;;;;;;;;;10.20;99.90;;;;;;4998759;28;19929;-89
2022/09/26 00:43:53;;;;;;;;;;;10.20;99.90;;;;;;4988159;28;20496;-88
2022/09/26 00:46:25;;;;;;;;;;;10.20;99.90;;;;;;5014176;28;19965;-88
2022/09/26 00:48:56;;;;;;;;;;;10.50;99.90;;;;;;5018466;28;20465;-88
2022/09/26 00:51:22;;;;;;;;;;;10.30;99.90;;;;;;5000715;28;19925;-88
2022/09/26 00:53:49;;;;;;;;;;;10.30;99.90;;;;;;5009503;28;19932;-88
2022/09/26 00:56:26;;;;;;;;;;;10.20;99.90;;;;;;5002911;28;19926;-89
2022/09/26 00:58:59;;;;;;;;;;;10.20;99.90;;;;;;5002406;28;19932;-89
2022/09/26 01:01:28;;;;;;;;;;;10.20;99.90;;;;;;5014910;28;19933;-89
2022/09/26 01:03:55;;;;;;;;;;;10.20;99.90;;;;;;4990212;28;19932;-90
2022/09/26 01:06:20;;;;;;;;;;;10.20;99.90;;;;;;4985503;28;19926;-89
2022/09/26 01:09:07;;;;;;;;;;;10.20;99.90;;;;;;5019838;28;19925;-89
2022/09/26 01:11:36;;;;;;;;;;;10.20;99.90;;;;;;5024331;28;19936;-89
2022/09/26 01:14:06;;;;;;;;;;;10.20;99.90;;;;;;5002649;28;19925;-88
2022/09/26 01:16:32;;;;;;;;;;;10.30;99.90;;;;;;5007025;28;19926;-89
2022/09/26 01:18:59;;;;;;;;;;;10.20;99.90;;;;;;5018963;28;19926;-88
2022/09/26 01:21:46;;;;;;;;;;;10.20;99.90;;;;;;5003947;28;19968;-89
2022/09/26 01:24:12;;;;;;;;;;;10.20;99.90;;;;;;5014511;28;19925;-89
2022/09/26 01:26:47;;;;;;;;;;;10.30;99.90;;;;;;5031227;28;19921;-89
2022/09/26 01:29:31;;;;;;;;;;;10.30;99.90;;;;;;5035161;28;20079;-89
2022/09/26 01:34:49;;;;;;;;;;;10.30;99.90;;;;;;5047797;28;20031;-88
2022/09/26 01:37:21;;;;;;;;;;;10.30;99.90;;;;;;5042969;28;19925;-88
2022/09/26 01:40:06;;;;;;;;;;;10.30;99.90;;;;;;5028739;28;19925;-88
2022/09/26 01:42:47;;;;;;;;;;;10.30;99.90;;;;;;5034290;28;20400;-88
2022/09/26 01:45:19;;;;;;;;;;;10.30;99.90;;;;;;5026026;28;20573;-88
2022/09/26 01:48:02;;;;;;;;;;;10.30;99.90;;;;;;5022850;28;20381;-88
2022/09/26 01:50:44;;;;;;;;;;;10.30;99.90;;;;;;5029461;28;19999;-88
2022/09/26 01:53:15;;;;;;;;;;;10.30;99.90;;;;;;5035507;28;19981;-89
2022/09/26 01:56:16;;;;;;;;;;;10.30;99.90;;;;;;5025339;28;20312;-88
2022/09/26 01:58:47;;;;;;;;;;;10.30;99.90;;;;;;4989919;28;19925;-87
2022/09/26 02:01:14;;;;;;;;;;;10.40;99.90;;;;;;5038085;28;19971;-90
2022/09/26 02:03:45;;;;;;;;;;;10.30;99.90;;;;;;5027826;28;19988;-89
2022/09/26 02:06:17;;;;;;;;;;;10.30;99.90;;;;;;5037119;28;19978;-89
2022/09/26 02:09:07;;;;;;;;;;;10.40;99.90;;;;;;5042409;28;19991;-89
2022/09/26 02:11:34;;;;;;;;;;;10.40;99.90;;;;;;5025665;28;19936;-88
2022/09/26 02:14:05;;;;;;;;;;;10.40;99.90;;;;;;5026446;28;19925;-90
2022/09/26 02:16:30;;;;;;;;;;;10.40;99.90;;;;;;5033974;28;19995;-89
2022/09/26 02:19:04;;;;;;;;;;;10.40;99.90;;;;;;5028404;28;20369;-89
2022/09/26 02:21:30;;;;;;;;;;;10.40;99.90;;;;;;5042228;28;19926;-89
2022/09/26 02:23:55;;;;;;;;;;;10.40;99.90;;;;;;5004696;28;19932;-88
2022/09/26 02:26:22;;;;;;;;;;;10.40;99.90;;;;;;5053625;28;19932;-88
2022/09/26 02:28:47;;;;;;;;;;;10.40;99.90;;;;;;5009558;28;19979;-88
2022/09/26 02:31:19;;;;;;;;;;;10.40;99.90;;;;;;5008478;28;19933;-89
2022/09/26 02:33:45;;;;;;;;;;;10.40;99.90;;;;;;5035899;28;20009;-89
2022/09/26 02:36:10;;;;;;;;;;;10.40;99.90;;;;;;5040687;28;19921;-88
2022/09/26 02:38:36;;;;;;;;;;;10.40;99.90;;;;;;5009254;28;19925;-89
2022/09/26 02:41:08;;;;;;;;;;;10.30;99.90;;;;;;5031376;28;19960;-88
2022/09/26 02:43:46;;;;;;;;;;;10.40;99.90;;;;;;5024295;28;19925;-88
2022/09/26 02:46:30;;;;;;;;;;;10.30;99.90;;;;;;5032295;28;20007;-88
2022/09/26 02:48:56;;;;;;;;;;;10.30;99.90;;;;;;5026487;28;19925;-89
2022/09/26 02:51:39;;;;;;;;;;;10.30;99.90;;;;;;5025490;28;19932;-88
2022/09/26 02:54:21;;;;;;;;;;;10.90;99.90;;;;;;5049828;28;19932;-87
2022/09/26 02:57:05;;;;;;;;;;;10.60;99.90;;;;;;5047912;28;19925;-87
2022/09/26 02:59:32;;;;;;;;;;;10.30;99.90;;;;;;5023968;28;19925;-89
2022/09/26 03:02:09;;;;;;;;;;;10.30;99.90;;;;;;5022563;28;20266;-88
2022/09/26 03:04:44;;;;;;;;;;;9.80;99.90;;;;;;5014323;28;19925;-88
2022/09/26 03:07:14;;;;;;;;;;;10.20;99.90;;;;;;5040988;28;19932;-88
2022/09/26 03:09:40;;;;;;;;;;;10.20;99.90;;;;;;5019345;28;19925;-88
2022/09/26 03:12:06;;;;;;;;;;;10.20;99.90;;;;;;5017478;28;19979;-88
2022/09/26 03:14:37;;;;;;;;;;;10.20;99.90;;;;;;5029136;28;19991;-87
2022/09/26 03:17:03;;;;;;;;;;;10.20;99.90;;;;;;5045307;28;19936;-88
2022/09/26 03:19:40;;;;;;;;;;;10.10;99.90;;;;;;5033154;28;19925;-88
2022/09/26 03:22:06;;;;;;;;;;;10.10;99.90;;;;;;5026400;28;19971;-88
2022/09/26 03:24:34;;;;;;;;;;;10.20;99.90;;;;;;5026141;28;19925;-88
2022/09/26 03:27:02;;;;;;;;;;;10.20;99.90;;;;;;5019727;28;19932;-88
2022/09/26 03:29:31;;;;;;;;;;;10.10;99.90;;;;;;5023444;28;19980;-88
2022/09/26 03:32:00;;;;;;;;;;;10.10;99.90;;;;;;5021230;28;20391;-88
2022/09/26 03:34:26;;;;;;;;;;;10.10;99.90;;;;;;5034088;28;19925;-87
2022/09/26 03:36:55;;;;;;;;;;;10.20;99.90;;;;;;5006075;28;19948;-88
2022/09/26 03:39:26;;;;;;;;;;;10.20;99.90;;;;;;5008239;28;19975;-88
2022/09/26 03:41:52;;;;;;;;;;;10.20;99.90;;;;;;5020271;28;19916;-88
2022/09/26 03:44:17;;;;;;;;;;;10.20;99.90;;;;;;5041115;28;19947;-87
2022/09/26 03:46:43;;;;;;;;;;;10.20;99.90;;;;;;5041502;28;19936;-88
2022/09/26 03:49:10;;;;;;;;;;;10.20;99.90;;;;;;5040057;28;19936;-88
2022/09/26 03:51:38;;;;;;;;;;;10.20;99.90;;;;;;5023320;28;20443;-88
2022/09/26 03:54:04;;;;;;;;;;;10.20;99.90;;;;;;5019946;28;20047;-88
2022/09/26 03:56:29;;;;;;;;;;;10.20;99.90;;;;;;5034065;28;19925;-88
2022/09/26 03:58:55;;;;;;;;;;;10.20;99.90;;;;;;5006946;28;19959;-88
2022/09/26 04:01:21;;;;;;;;;;;10.20;99.90;;;;;;5022871;28;19925;-88
2022/09/26 04:03:47;;;;;;;;;;;10.20;99.90;;;;;;5013276;28;19947;-88
2022/09/26 04:06:18;;;;;;;;;;;10.10;99.90;;;;;;5009818;28;19929;-88
2022/09/26 04:08:45;;;;;;;;;;;10.20;99.90;;;;;;5021697;28;19925;-88
2022/09/26 04:11:12;;;;;;;;;;;10.20;99.90;;;;;;5012516;28;20412;-88
2022/09/26 04:13:37;;;;;;;;;;;10.20;99.90;;;;;;5023305;28;19970;-88
2022/09/26 04:16:07;;;;;;;;;;;10.20;99.90;;;;;;5021121;28;19967;-88
2022/09/26 04:18:33;;;;;;;;;;;10.10;99.90;;;;;;5022977;28;20015;-86
2022/09/26 04:20:59;;;;;;;;;;;10.20;99.90;;;;;;5038404;28;19925;-87
2022/09/26 04:23:29;;;;;;;;;;;10.10;99.90;;;;;;5045946;28;19925;-87
2022/09/26 04:25:55;;;;;;;;;;;10.10;99.90;;;;;;5034005;28;19924;-87
2022/09/26 04:28:20;;;;;;;;;;;10.10;99.90;;;;;;5010855;28;20191;-87
2022/09/26 04:30:46;;;;;;;;;;;10.10;99.90;;;;;;5047253;28;19932;-87
2022/09/26 04:33:11;;;;;;;;;;;10.10;99.90;;;;;;5013612;28;19925;-87
2022/09/26 04:35:37;;;;;;;;;;;10.10;99.90;;;;;;5026251;28;19924;-87
2022/09/26 04:38:03;;;;;;;;;;;10.10;99.90;;;;;;5027933;28;20001;-88
2022/09/26 04:40:38;;;;;;;;;;;10.10;99.90;;;;;;5060829;28;19929;-87
2022/09/26 04:43:04;;;;;;;;;;;10.10;99.90;;;;;;5028749;28;19959;-87
2022/09/26 04:45:29;;;;;;;;;;;10.10;99.90;;;;;;5010440;28;19929;-86
2022/09/26 04:47:55;;;;;;;;;;;10.10;99.90;;;;;;5008486;28;20008;-87
2022/09/26 04:50:20;;;;;;;;;;;10.10;99.90;;;;;;5043316;28;19936;-88
2022/09/26 04:52:48;;;;;;;;;;;10.10;99.90;;;;;;5019556;28;19931;-86
2022/09/26 04:55:14;;;;;;;;;;;10.10;99.90;;;;;;5025631;28;20703;-88
2022/09/26 04:57:40;;;;;;;;;;;10.10;99.90;;;;;;5023279;28;19925;-87
2022/09/26 05:00:06;;;;;;;;;;;10.10;99.90;;;;;;5013775;28;19925;-87
2022/09/26 05:02:34;;;;;;;;;;;10.10;99.90;;;;;;5010175;28;20357;-87
2022/09/26 05:05:00;;;;;;;;;;;10.00;99.90;;;;;;5013186;28;20427;-86
2022/09/26 05:07:28;;;;;;;;;;;10.10;99.90;;;;;;5025186;28;19976;-86
2022/09/26 05:09:54;;;;;;;;;;;10.10;99.90;;;;;;5025151;28;19964;-85
2022/09/26 05:12:19;;;;;;;;;;;10.10;99.90;;;;;;5026621;28;19931;-86
2022/09/26 05:14:45;;;;;;;;;;;10.10;99.90;;;;;;5031494;28;19982;-86
2022/09/26 05:17:14;;;;;;;;;;;10.10;99.90;;;;;;5032961;28;19929;-86
2022/09/26 05:19:41;;;;;;;;;;;10.10;99.90;;;;;;5027287;28;20399;-86
2022/09/26 05:22:07;;;;;;;;;;;10.10;99.90;;;;;;5034249;28;19924;-86
2022/09/26 05:27:20;;;;;;;;;;;10.00;99.90;;;;;;5046652;28;19933;-86
2022/09/26 05:29:45;;;;;;;;;;;10.00;99.90;;;;;;5044769;28;19982;-87
2022/09/26 05:32:12;;;;;;;;;;;10.00;99.90;;;;;;5010471;28;19929;-89
2022/09/26 05:34:38;;;;;;;;;;;10.00;99.90;;;;;;5036940;28;19947;-90
2022/09/26 05:37:04;;;;;;;;;;;10.00;99.90;;;;;;5020427;28;19988;-88
2022/09/26 05:42:14;;;;;;;;;;;9.90;99.90;;;;;;5027682;28;19925;-90
2022/09/26 05:44:39;;;;;;;;;;;10.00;99.90;;;;;;5016142;28;20003;-89
2022/09/26 05:47:06;;;;;;;;;;;10.00;99.90;;;;;;5010132;28;19924;-89
2022/09/26 05:49:32;;;;;;;;;;;10.00;99.90;;;;;;5037399;28;19924;-88
2022/09/26 05:51:58;;;;;;;;;;;10.00;99.90;;;;;;5020691;28;19925;-88
2022/09/26 05:54:24;;;;;;;;;;;10.00;99.90;;;;;;5027178;28;19944;-90
2022/09/26 05:56:49;;;;;;;;;;;10.00;99.90;;;;;;5024028;28;20552;-87
2022/09/26 05:59:15;;;;;;;;;;;10.00;99.90;;;;;;5023181;28;19983;-87
2022/09/26 06:01:45;;;;;;;;;;;10.00;99.90;;;;;;5019526;28;20427;-88
2022/09/26 06:04:11;;;;;;;;;;;9.90;99.90;;;;;;5035032;28;19929;-88
2022/09/26 06:06:36;;;;;;;;;;;10.00;99.90;;;;;;5014115;28;19933;-88
2022/09/26 06:09:02;;;;;;;;;;;9.90;99.90;;;;;;5002795;28;19933;-87
2022/09/26 06:11:34;;;;;;;;;;;9.90;99.90;;;;;;5021638;28;19933;-88
2022/09/26 06:13:59;;;;;;;;;;;9.90;99.90;;;;;;5000041;28;20242;-87
2022/09/26 06:16:25;;;;;;;;;;;9.90;99.90;;;;;;5003288;28;19933;-89
2022/09/26 06:18:51;;;;;;;;;;;9.90;99.90;;;;;;5007022;28;19925;-88
2022/09/26 06:21:18;;;;;;;;;;;10.00;99.90;;;;;;5015713;28;19932;-88
2022/09/26 06:23:44;;;;;;;;;;;10.00;99.90;;;;;;5019398;28;19956;-90
2022/09/26 06:26:23;;;;;;;;;;;9.90;99.90;;;;;;5017572;28;20020;-88
2022/09/26 06:28:56;;;;;;;;;;;9.90;99.90;;;;;;5016686;28;20538;-88
2022/09/26 06:31:24;;;;;;;;;;;9.90;99.90;;;;;;5033864;28;19925;-88
2022/09/26 06:33:53;;;;;;;;;;;9.90;99.90;;;;;;5006287;28;19929;-88
2022/09/26 06:36:20;;;;;;;;;;;9.90;99.90;;;;;;5016007;28;20297;-88
2022/09/26 06:38:46;;;;;;;;;;;9.90;99.90;;;;;;5017995;28;20635;-88
2022/09/26 06:41:15;;;;;;;;;;;9.80;99.90;;;;;;5018190;28;19944;-88
2022/09/26 06:43:44;;;;;;;;;;;9.90;99.90;;;;;;5024655;28;20136;-89
2022/09/26 06:46:13;;;;;;;;;;;9.90;99.90;;;;;;5022990;28;19961;-86
2022/09/26 06:48:39;;;;;;;;;;;9.80;99.90;;;;;;5016466;28;19925;-87
2022/09/26 06:51:05;;;;;;;;;;;9.80;99.90;;;;;;5007769;28;19933;-89
2022/09/26 06:53:31;;;;;;;;;;;9.80;99.90;;;;;;5008216;28;19944;-88
2022/09/26 06:56:00;;;;;;;;;;;9.80;99.90;;;;;;5023813;28;19925;-88
2022/09/26 06:58:26;;;;;;;;;;;9.80;99.90;;;;;;5026040;28;19988;-89
2022/09/26 07:00:57;;;;;;;;;;;9.80;99.90;;;;;;5028109;28;19934;-88
2022/09/26 07:03:25;;;;;;;;;;;9.80;99.90;;;;;;5026240;28;19933;-89
2022/09/26 07:05:55;;;;;;;;;;;9.80;99.90;;;;;;5028617;28;20390;-88
2022/09/26 07:08:24;;;;;;;;;;;9.80;99.90;;;;;;5013393;28;19940;-87
2022/09/26 07:10:54;;;;;;;;;;;9.80;99.90;;;;;;5032969;28;20225;-91
2022/09/26 07:13:20;;;;;;;;;;;9.80;99.90;;;;;;5035969;28;19936;-89
2022/09/26 07:15:46;;;;;;;;;;;9.80;99.90;;;;;;5026213;28;19941;-87
2022/09/26 07:18:12;;;;;;;;;;;9.90;99.90;;;;;;5018691;28;21425;-88
2022/09/26 07:20:47;;;;;;;;;;;9.90;99.90;;;;;;5009892;28;19936;-87
2022/09/26 07:23:15;;;;;;;;;;;9.90;99.90;;;;;;4996226;28;19937;-88
2022/09/26 07:25:44;;;;;;;;;;;9.90;99.90;;;;;;5008357;28;19979;-88
2022/09/26 07:28:09;;;;;;;;;;;9.90;99.90;;;;;;5006366;28;19929;-88
2022/09/26 07:30:35;;;;;;;;;;;10.00;99.90;;;;;;5030013;28;20018;-88
2022/09/26 07:33:02;;;;;;;;;;;10.00;99.90;;;;;;5007793;28;19925;-89
2022/09/26 07:35:33;;;;;;;;;;;10.00;99.90;;;;;;5009299;28;19925;-87
2022/09/26 07:37:58;;;;;;;;;;;9.90;99.90;;;;;;5023633;28;19935;-88
2022/09/26 07:40:25;;;;;;;;;;;10.00;99.90;;;;;;5007581;28;19933;-88
2022/09/26 07:42:51;;;;;;;;;;;9.90;99.90;;;;;;5005809;28;19934;-88
2022/09/26 07:50:10;;;;;;;;;;;10.00;99.90;;;;;;5021015;28;19928;-87
2022/09/26 07:50:57;;;;;;;;;;;10.00;99.90;;;;;;5002113;28;19956;-89
2022/09/26 07:53:24;;;;;;;;;;;10.00;99.90;;;;;;5023995;28;20389;-88
2022/09/26 07:56:05;;;;;;;;;;;10.10;99.90;;;;;;5046580;28;19979;-88
2022/09/26 07:58:40;;;;;;;;;;;10.10;99.90;;;;;;5008326;28;19935;-88
2022/09/26 08:01:10;;;;;;;;;;;10.20;99.90;;;;;;5019735;28;19933;-88
2022/09/26 08:03:39;;;;;;;;;;;10.20;99.90;;;;;;5027129;28;19929;-89
2022/09/26 08:06:08;;;;;;;;;;;10.30;99.90;;;;;;5003808;28;19947;-88
2022/09/26 08:08:34;;;;;;;;;;;10.30;99.90;;;;;;5024031;28;19940;-89
2022/09/26 08:11:04;;;;;;;;;;;10.40;99.90;;;;;;5021227;28;19925;-90
2022/09/26 08:13:30;;;;;;;;;;;10.40;99.90;;;;;;5019858;28;19933;-88
2022/09/26 08:16:05;;;;;;;;;;;10.50;99.90;;;;;;5021284;28;19929;-89
2022/09/26 08:18:32;;;;;;;;;;;10.50;99.90;;;;;;5023804;28;19925;-88
2022/09/26 08:20:57;;;;;;;;;;;10.50;99.90;;;;;;5036879;28;19921;-89
2022/09/26 08:23:23;;;;;;;;;;;10.60;99.90;;;;;;5020886;28;19983;-90
2022/09/26 08:25:52;;;;;;;;;;;10.60;99.90;;;;;;5009339;28;19967;-90
2022/09/26 08:28:17;;;;;;;;;;;10.60;99.90;;;;;;5006538;28;19933;-89
2022/09/26 08:30:43;;;;;;;;;;;10.70;99.90;;;;;;5007291;28;20381;-89
2022/09/26 08:33:11;;;;;;;;;;;10.70;99.90;;;;;;5030308;28;19933;-87
2022/09/26 08:35:39;;;;;;;;;;;10.70;99.90;;;;;;5019027;28;19995;-88
2022/09/26 08:38:05;;;;;;;;;;;10.70;99.90;;;;;;5003731;28;19924;-91
2022/09/26 08:40:36;;;;;;;;;;;10.70;99.90;;;;;;5023951;28;19928;-93
2022/09/26 08:43:28;;;;;;;;;;;10.70;99.90;;;;;;5023810;28;19939;-91
2022/09/26 08:48:44;;;;;;;;;;;10.70;99.90;;;;;;5027337;28;19955;-93
2022/09/26 08:51:28;;;;;;;;;;;10.70;99.90;;;;;;5022618;28;19975;-88
2022/09/26 08:53:58;;;;;;;;;;;10.70;99.90;;;;;;5023751;28;19933;-93
2022/09/26 08:56:46;;;;;;;;;;;10.70;99.90;;;;;;5023231;28;19933;-93
2022/09/26 08:59:21;;;;;;;;;;;10.80;99.90;;;;;;5009000;28;19925;-92
2022/09/26 09:01:48;;;;;;;;;;;10.80;99.90;;;;;;5024452;28;19961;-91
2022/09/26 09:04:20;;;;;;;;;;;10.80;99.90;;;;;;5006241;28;19933;-91
2022/09/26 09:06:53;;;;;;;;;;;10.90;99.90;;;;;;5047865;28;19925;-93
2022/09/26 09:09:22;;;;;;;;;;;10.90;99.90;;;;;;5022881;28;19925;-91
2022/09/26 09:12:06;;;;;;;;;;;10.90;99.90;;;;;;5020926;28;19947;-91
2022/09/26 09:14:44;;;;;;;;;;;10.90;99.90;;;;;;5021541;28;20020;-91
2022/09/26 09:17:16;;;;;;;;;;;11.00;99.90;;;;;;5021313;28;19925;-89
2022/09/26 09:19:47;;;;;;;;;;;11.00;99.90;;;;;;5020470;28;19933;-89
2022/09/26 09:22:31;;;;;;;;;;;10.60;99.90;;;;;;5021524;28;20983;-89
2022/09/26 09:25:05;;;;;;;;;;;11.10;99.90;;;;;;5021469;28;19933;-90
2022/09/26 09:27:47;;;;;;;;;;;11.10;99.90;;;;;;5023134;28;22151;-86
2022/09/26 09:30:22;;;;;;;;;;;11.20;99.90;;;;;;5027663;28;19939;-89
2022/09/26 09:32:56;;;;;;;;;;;10.90;99.90;;;;;;5035444;28;19921;-89
2022/09/26 09:35:34;;;;;;;;;;;11.20;99.90;;;;;;5033465;28;19925;-90
2022/09/26 09:38:00;;;;;;;;;;;11.20;99.90;;;;;;5019946;28;20412;-93
2022/09/26 09:40:28;;;;;;;;;;;11.30;99.90;;;;;;5021834;28;19933;-91
2022/09/26 09:43:02;;;;;;;;;;;11.20;99.90;;;;;;5045869;28;21266;-90
2022/09/26 09:45:50;;;;;;;;;;;11.30;99.90;;;;;;5002512;28;20384;-91
2022/09/26 09:48:16;;;;;;;;;;;11.30;99.90;;;;;;4990169;28;19944;-91
2022/09/26 09:50:42;;;;;;;;;;;11.30;99.90;;;;;;5003259;28;19933;-93
2022/09/26 09:53:10;;;;;;;;;;;11.30;99.90;;;;;;5022315;28;19933;-93
2022/09/26 09:55:59;;;;;;;;;;;11.30;99.90;;;;;;5019821;28;19945;-90
2022/09/26 09:58:50;;;;;;;;;;;11.30;99.90;;;;;;5014092;28;19948;-92
2022/09/26 10:01:29;;;;;;;;;;;11.30;99.90;;;;;;5023153;28;19932;-92
2022/09/26 10:03:55;;;;;;;;;;;11.20;99.90;;;;;;5021052;28;20300;-92
2022/09/26 10:06:21;;;;;;;;;;;11.20;99.90;;;;;;5015141;28;19925;-92
2022/09/26 10:08:49;;;;;;;;;;;11.30;99.90;;;;;;5002970;28;19998;-96
2022/09/26 10:11:29;;;;;;;;;;;11.20;99.90;;;;;;5022094;28;19933;-91
2022/09/26 10:14:00;;;;;;;;;;;11.20;99.90;;;;;;5025896;28;20574;-94
2022/09/26 10:16:25;;;;;;;;;;;11.20;99.90;;;;;;5019762;28;19978;-89
2022/09/26 10:19:03;;;;;;;;;;;11.10;99.90;;;;;;5021362;28;19925;-89
2022/09/26 10:21:32;;;;;;;;;;;11.10;99.90;;;;;;5024408;28;20311;-88
2022/09/26 10:23:58;;;;;;;;;;;11.30;99.90;;;;;;5026588;28;19939;-89
2022/09/26 10:26:25;;;;;;;;;;;11.10;99.90;;;;;;5022466;28;19933;-90
2022/09/26 10:28:54;;;;;;;;;;;11.10;99.90;;;;;;5010618;28;19932;-90
2022/09/26 10:31:22;;;;;;;;;;;11.10;99.90;;;;;;5020059;28;19936;-90
2022/09/26 10:33:52;;;;;;;;;;;11.20;99.90;;;;;;5025901;28;19942;-89
2022/09/26 10:36:30;;;;;;;;;;;11.10;99.90;;;;;;5032967;28;19939;-91
2022/09/26 10:41:45;;;;;;;;;;;11.10;99.90;;;;;;5037314;28;19925;-90
2022/09/26 10:44:25;;;;;;;;;;;11.10;99.90;;;;;;5028071;28;19925;-90
2022/09/26 10:46:56;;;;;;;;;;;11.20;99.90;;;;;;5048797;28;19931;-90
2022/09/26 10:49:25;;;;;;;;;;;11.20;99.90;;;;;;5026069;28;19925;-89
2022/09/26 10:51:59;;;;;;;;;;;11.20;99.90;;;;;;5021812;28;19940;-90
2022/09/26 10:54:39;;;;;;;;;;;11.30;99.90;;;;;;5020804;28;19976;-90
2022/09/26 10:57:16;;;;;;;;;;;11.30;99.90;;;;;;5026799;28;19932;-88
2022/09/26 10:59:42;;;;;;;;;;;10.80;99.90;;;;;;5026289;28;19925;-89
2022/09/26 11:02:13;;;;;;;;;;;11.30;99.90;;;;;;5009135;28;20039;-90
2022/09/26 11:07:32;;;;;;;;;;;11.40;99.90;;;;;;5020688;28;19925;-89
2022/09/26 11:10:04;;;;;;;;;;;11.40;99.90;;;;;;5024511;28;20875;-88
2022/09/26 11:12:30;;;;;;;;;;;11.30;99.90;;;;;;5022708;28;19971;-89
2022/09/26 11:15:00;;;;;;;;;;;11.30;99.90;;;;;;5026564;28;20424;-86
2022/09/26 11:17:46;;;;;;;;;;;11.20;99.90;;;;;;5037890;28;19986;-87
2022/09/26 11:20:16;;;;;;;;;;;11.20;99.90;;;;;;5022740;28;20478;-83
2022/09/26 11:22:46;;;;;;;;;;;11.20;99.90;;;;;;5013874;28;20055;-83
2022/09/26 11:25:16;;;;;;;;;;;11.20;99.90;;;;;;5020222;28;20393;-83
2022/09/26 11:27:44;;;;;;;;;;;11.20;99.90;;;;;;5009031;28;19937;-83
2022/09/26 11:30:20;;;;;;;;;;;11.10;99.90;;;;;;5018277;28;20284;-83
2022/09/26 11:32:47;;;;;;;;;;;11.20;99.90;;;;;;5021370;28;19925;-83
2022/09/26 11:35:14;;;;;;;;;;;11.20;99.90;;;;;;5024056;28;19939;-83
2022/09/26 11:37:49;;;;;;;;;;;11.20;99.90;;;;;;5022288;28;19933;-83
2022/09/26 11:40:21;;;;;;;;;;;11.20;99.90;;;;;;5018997;28;19940;-83
2022/09/26 11:43:07;;;;;;;;;;;11.20;99.90;;;;;;5018496;28;19925;-89
2022/09/26 11:45:45;;;;;;;;;;;11.30;99.90;;;;;;5019078;28;19932;-86
2022/09/26 11:48:34;;;;;;;;;;;11.30;99.90;;;;;;5033125;28;19940;-88
2022/09/26 11:50:59;;;;;;;;;;;11.30;99.90;;;;;;5030405;28;19929;-89
2022/09/26 11:53:35;;;;;;;;;;;11.30;99.90;;;;;;5027830;28;20403;-90
2022/09/26 11:56:01;;;;;;;;;;;11.30;99.90;;;;;;5023075;28;20011;-90
2022/09/26 11:58:45;;;;;;;;;;;11.30;99.90;;;;;;5021881;28;19932;-93
2022/09/26 12:01:18;;;;;;;;;;;11.40;99.90;;;;;;5022040;28;19960;-91
2022/09/26 12:04:05;;;;;;;;;;;11.40;99.90;;;;;;5015782;28;19948;-91
2022/09/26 12:06:49;;;;;;;;;;;11.40;99.90;;;;;;5025542;28;19959;-90
2022/09/26 12:09:24;;;;;;;;;;;11.40;99.90;;;;;;5022701;28;19933;-89
2022/09/26 12:12:08;;;;;;;;;;;11.30;99.90;;;;;;5024951;28;19924;-90
2022/09/26 12:14:51;;;;;;;;;;;11.40;99.90;;;;;;5022761;28;19928;-90
2022/09/26 12:17:30;;;;;;;;;;;11.40;99.90;;;;;;5022582;28;19933;-91
2022/09/26 12:19:55;;;;;;;;;;;11.40;99.90;;;;;;5022643;28;19993;-90
2022/09/26 12:22:27;;;;;;;;;;;11.50;99.90;;;;;;5007922;28;20047;-90
2022/09/26 12:25:06;;;;;;;;;;;11.40;99.90;;;;;;5021196;28;19971;-87
2022/09/26 12:27:34;;;;;;;;;;;11.50;99.90;;;;;;5036095;28;19943;-85
2022/09/26 12:30:11;;;;;;;;;;;11.40;99.90;;;;;;5022772;28;19932;-91
2022/09/26 12:32:46;;;;;;;;;;;11.50;99.90;;;;;;5022506;28;19925;-90
2022/09/26 12:35:28;;;;;;;;;;;11.80;99.90;;;;;;5023230;28;20388;-91
2022/09/26 12:37:56;;;;;;;;;;;11.50;99.90;;;;;;5022468;28;20051;-91
2022/09/26 12:40:40;;;;;;;;;;;11.50;99.90;;;;;;5024570;28;19979;-90
2022/09/26 12:43:26;;;;;;;;;;;11.50;99.90;;;;;;5022794;28;19939;-92
2022/09/26 12:46:11;;;;;;;;;;;11.50;99.90;;;;;;5022386;28;19932;-90
2022/09/26 12:48:55;;;;;;;;;;;11.50;99.90;;;;;;5022647;28;19933;-89
2022/09/26 12:51:41;;;;;;;;;;;11.50;99.90;;;;;;5022441;28;19932;-90
2022/09/26 12:54:19;;;;;;;;;;;11.60;99.90;;;;;;5020940;28;19936;-90
2022/09/26 12:56:56;;;;;;;;;;;11.90;99.90;;;;;;5030917;28;19929;-91
2022/09/26 12:59:30;;;;;;;;;;;11.70;99.90;;;;;;5059626;28;19939;-89
2022/09/26 13:02:15;;;;;;;;;;;11.80;99.90;;;;;;5027791;28;19968;-86
2022/09/26 13:04:44;;;;;;;;;;;11.80;99.90;;;;;;5024520;28;19925;-88
2022/09/26 13:07:17;;;;;;;;;;;11.80;99.90;;;;;;5017908;28;20361;-87
2022/09/26 13:09:46;;;;;;;;;;;11.80;99.90;;;;;;5019600;28;19995;-87
2022/09/26 13:12:11;;;;;;;;;;;11.80;99.90;;;;;;5019562;28;19932;-87
2022/09/26 13:14:46;;;;;;;;;;;11.90;99.90;;;;;;5021366;28;20392;-87
2022/09/26 13:17:24;;;;;;;;;;;11.90;99.90;;;;;;5014664;28;19928;-86
2022/09/26 13:19:56;;;;;;;;;;;12.00;99.90;;;;;;5020649;28;19933;-87
2022/09/26 13:22:31;;;;;;;;;;;12.10;99.90;;;;;;5017097;28;19932;-87
2022/09/26 13:25:09;;;;;;;;;;;12.20;99.90;;;;;;5016680;28;19925;-86
2022/09/26 13:27:45;;;;;;;;;;;12.20;99.90;;;;;;5019072;28;20432;-87
2022/09/26 13:30:14;;;;;;;;;;;12.20;99.90;;;;;;5014773;28;20465;-88
2022/09/26 13:32:40;;;;;;;;;;;12.20;99.90;;;;;;5015658;28;20545;-86
2022/09/26 13:35:18;;;;;;;;;;;12.20;99.90;;;;;;5014277;28;19936;-86
2022/09/26 13:38:04;;;;;;;;;;;12.20;99.90;;;;;;5017737;28;19925;-89
2022/09/26 13:40:46;;;;;;;;;;;12.20;99.90;;;;;;5016293;28;19933;-87
2022/09/26 13:43:33;;;;;;;;;;;12.30;99.90;;;;;;5014954;28;19933;-88
2022/09/26 13:46:02;;;;;;;;;;;12.30;99.90;;;;;;5015126;28;19933;-88
2022/09/26 13:48:32;;;;;;;;;;;12.30;99.90;;;;;;5013712;28;19961;-87
2022/09/26 13:51:05;;;;;;;;;;;12.30;99.90;;;;;;5014883;28;19934;-87
2022/09/26 13:53:37;;;;;;;;;;;12.20;99.90;;;;;;5045126;28;19933;-87
2022/09/26 13:56:22;;;;;;;;;;;12.30;99.90;;;;;;5021481;28;19941;-87
2022/09/26 13:59:03;;;;;;;;;;;12.40;99.90;;;;;;5019812;28;20067;-88
2022/09/26 14:01:32;;;;;;;;;;;12.40;99.90;;;;;;5018836;28;19933;-88
2022/09/26 14:04:16;;;;;;;;;;;12.40;99.90;;;;;;5005654;28;19933;-88
2022/09/26 14:07:01;;;;;;;;;;;12.40;99.90;;;;;;5033771;28;19995;-88
2022/09/26 14:09:42;;;;;;;;;;;12.40;99.90;;;;;;5022813;28;19956;-87
2022/09/26 14:12:30;;;;;;;;;;;12.40;99.90;;;;;;5020734;28;19959;-88
2022/09/26 14:15:15;;;;;;;;;;;12.30;99.90;;;;;;5022432;28;20440;-87
2022/09/26 14:17:41;;;;;;;;;;;12.40;99.90;;;;;;5017272;28;19933;-88
2022/09/26 14:20:14;;;;;;;;;;;12.50;99.90;;;;;;5019429;28;19933;-88
2022/09/26 14:22:48;;;;;;;;;;;12.40;99.90;;;;;;5020984;28;20203;-88
2022/09/26 14:25:33;;;;;;;;;;;12.50;99.90;;;;;;5029244;28;19932;-87
2022/09/26 14:28:16;;;;;;;;;;;12.50;99.90;;;;;;5021979;28;20394;-87
2022/09/26 14:31:01;;;;;;;;;;;12.60;99.90;;;;;;5009956;28;20732;-87
2022/09/26 14:33:27;;;;;;;;;;;12.60;99.90;;;;;;5021735;28;19976;-87
2022/09/26 14:36:12;;;;;;;;;;;12.60;99.90;;;;;;5021374;28;20304;-88
2022/09/26 14:38:39;;;;;;;;;;;12.60;99.90;;;;;;5042091;28;19964;-88
2022/09/26 14:41:05;;;;;;;;;;;12.60;99.90;;;;;;5021578;28;19925;-88
2022/09/26 14:43:34;;;;;;;;;;;12.70;99.90;;;;;;5003913;28;19939;-88
2022/09/26 14:46:19;;;;;;;;;;;12.80;99.90;;;;;;5023104;28;19933;-88
2022/09/26 14:48:54;;;;;;;;;;;12.90;99.90;;;;;;5025919;28;19925;-87
2022/09/26 14:51:25;;;;;;;;;;;13.00;99.90;;;;;;5019558;28;19925;-87
2022/09/26 14:53:57;;;;;;;;;;;13.10;99.90;;;;;;5022896;28;19925;-88
2022/09/26 14:56:26;;;;;;;;;;;13.20;99.90;;;;;;5019349;28;20771;-88
2022/09/26 14:58:55;;;;;;;;;;;13.20;99.90;;;;;;5021592;28;19954;-88
2022/09/26 15:01:29;;;;;;;;;;;13.20;99.90;;;;;;5015667;28;20011;-88
2022/09/26 15:04:01;;;;;;;;;;;13.20;99.90;;;;;;5017452;28;20398;-88